May 22, 2022

Time Code Weather Temp. Visibility Clouds Wind METAR/SPECI
1:00 am
V
63 °F 15 mi 12,000 ft 200°   200° 6 kt METAR CYOW 220500Z 20006KT 15SM BKN120 17/17 A2999 RMK AC7 SLP158 DENSITY ALT 700FT
12:00 am
V
63 °F 15 mi 12,000 ft 230°   230° 5 kt METAR CYOW 220400Z 23005KT 15SM BKN120 BKN240 17/17 A2998 RMK AC5CI2 DIST LTNG E-S SLP154 DENSITY ALT 700FT

May 21, 2022

Time Code Weather Temp. Visibility Clouds Wind METAR/SPECI
11:00 pm
V
64 °F 15 mi - 250°   250° 4 kt METAR CYOW 220300Z 25004KT 15SM SCT250 18/17 A2995 RMK CI3 SLP144 DENSITY ALT 800FT
10:00 pm
V
64 °F 15 mi - 250°   250° 5 kt METAR CYOW 220200Z 25005KT 15SM FEW250 18/16 A2994 RMK CI1 SLP140 DENSITY ALT 800FT
9:00 pm
V
66 °F 15 mi - 240°   240° 3 kt METAR CYOW 220100Z 24003KT 15SM FEW010 SCT250 19/17 A2991 RMK SC1CI3 SC TR SLP131 DENSITY ALT 1000FT
8:00 pm
V
68 °F 15 mi - 230°   230° 7 kt METAR CYOW 220000Z 23007KT 15SM FEW010 FEW180 SCT250 20/17 A2990 RMK SC1AC1CI3 SC TR AC TR SLP126 DENSITY ALT 1100FT
7:00 pm
V
70 °F 15 mi 18,000 ft 230°   230° 7 kt METAR CYOW 212300Z 23007KT 15SM FEW010 BKN180 BKN250 21/18 A2991 RMK CU1AC5CI1 CU TR SLP132 DENSITY ALT 1300FT
6:00 pm
V
68 °F 15 mi 26,000 ft 230°   230° 9 kt METAR CYOW 212200Z 23009KT 15SM FEW030 BKN260 20/17 A2991 RMK CU1CI6 SLP130 DENSITY ALT 1100FT
5:00 pm
V
64 °F 15 mi 10,000 ft 180°   180° 12 kt METAR CYOW 212100Z 18012KT 170V300 15SM OVC100 18/16 A2984 RMK AC8 FROPA PST HR PRESRR SLP106 DENSITY ALT 1000FT
4:52 pm
V
66 °F 15 mi 10,000 ft 280°   280° 11 kt METAR CYOW 212052Z 28011KT 230V300 15SM -SHRA SCT030 OVC100 19/16 A2980 RMK CU4AC4 SLP095 DENSITY ALT 1100FT
4:17 pm
V
64 °F 15 mi 5,000 ft 240°   240° 9 18 kt METAR CYOW 212017Z 24009G18KT 15SM -TSRA BKN050CB OVC100 18/16 A2988 RMK CB5AC3 PRESFR SLP119 DENSITY ALT 900FT
4:00 pm
I
64 °F 3 mi 5,000 ft 260°   260° 19 61 kt METAR CYOW 212000Z 26019G61KT 3SM R07/5000V6000FT/N +TSRA OVC050CB 18/16 A2991 RMK RA4CB4 PRESRR SLP131 DENSITY ALT 800FT
3:52 pm
L
68 °F ¼ mi 5,000 ft 280°   280° 38 65 kt METAR CYOW 211952Z 28038G65KT 1/4SM R07/P6000FT/U R32/4000VP6000FT/D +TSRA OVC050CB 20/17 A2992 RMK RA5CB3 NOTE WIND SPEED PRESRR SLP135 DENSITY ALT 1100FT
3:13 pm
V
86 °F 15 mi 11,000 ft 210°   210° 16 kt METAR CYOW 211913Z 21016KT 15SM TS SCT044CB BKN110 30/19 A2981 RMK CB3AC3 TCU ASOCTD SLP094 DENSITY ALT 2400FT
3:00 pm
V
86 °F 15 mi 11,000 ft 230°   230° 16 21 kt METAR CYOW 211900Z 23016G21KT 15SM SCT044TCU BKN110 30/19 A2982 RMK TCU4AC3 CU ASOCTD SLP097 DENSITY ALT 2300FT
2:00 pm
V
86 °F 15 mi 18,000 ft 210°   210° 11 22 kt METAR CYOW 211800Z 21011G22KT 15SM SCT040 BKN180 30/20 A2982 RMK CU4AC2 TCU ASOCTD SLP098 DENSITY ALT 2300FT
1:00 pm
V
84 °F 15 mi 18,000 ft 220°   220° 9 kt METAR CYOW 211700Z 22009KT 180V260 15SM FEW032 SCT100 BKN180 29/21 A2982 RMK CU2ACC1AC4 SLP097 DENSITY ALT 2300FT
12:00 pm
V
81 °F 12 mi 18,000 ft 200°   200° 14 23 kt METAR CYOW 211600Z 20014G23KT 150V210 12SM FEW100 BKN180 27/19 A2979 RMK ACC2AC5 SLP087 DENSITY ALT 2000FT
11:00 am
V
81 °F 12 mi 24,000 ft 190°   190° 9 kt METAR CYOW 211500Z 19009KT 12SM FEW080 FEW090 BKN240 27/20 A2979 RMK ACC1AC2CI4 ACC TR SLP089 DENSITY ALT 2100FT
10:00 am
V
77 °F 12 mi 24,000 ft 200°   200° 8 kt METAR CYOW 211400Z 20008KT 12SM FEW080 SCT090 BKN240 25/20 A2980 RMK ACC1AC2CI3 SLP094 DENSITY ALT 1800FT
9:00 am
V
73 °F 12 mi - 210°   210° 11 17 kt METAR CYOW 211300Z 21011G17KT 12SM FEW160 SCT240 23/18 A2981 RMK AC2CI2 SLP096 DENSITY ALT 1600FT
8:00 am
V
72 °F 12 mi - 210°   210° 9 kt METAR CYOW 211200Z 21009KT 12SM SCT093 SCT240 22/18 A2980 RMK AC3CI1 SLP092 DENSITY ALT 1400FT
7:00 am
V
70 °F 15 mi 8,200 ft 210°   210° 10 16 kt METAR CYOW 211100Z 21010G16KT 15SM BKN082 BKN120 OVC240 21/18 A2978 RMK AC5AC2CI1 PRESRR SLP087 DENSITY ALT 1300FT
6:00 am
V
70 °F 15 mi 12,000 ft 210°   210° 9 kt METAR CYOW 211000Z 21009KT 15SM FEW025TCU FEW080 BKN120 BKN210 21/18 A2974 RMK TCU1AC2AC3CI1 TCU TR SLP073 DENSITY ALT 1400FT
5:00 am
V
68 °F 15 mi 9,000 ft 200°   200° 6 kt METAR CYOW 210900Z 20006KT 15SM FEW050 BKN090 BKN120 20/18 A2974 RMK SC2AC3AC2 SLP071 DENSITY ALT 1300FT
4:00 am
V
70 °F 15 mi 11,000 ft 190°   190° 10 kt METAR CYOW 210800Z 19010KT 15SM FEW050 SCT090 BKN110 21/17 A2972 RMK SC1AC3AC3 SLP064 DENSITY ALT 1400FT
3:00 am
V
70 °F 15 mi 25,000 ft 200°   200° 11 19 kt METAR CYOW 210700Z 20011G19KT 15SM FEW040 SCT100 BKN250 21/17 A2970 RMK SC1AC4CI3 SC TR SLP058 DENSITY ALT 1500FT
2:00 am
V
70 °F 15 mi 11,000 ft 190°   190° 9 19 kt METAR CYOW 210600Z 19009G19KT 15SM SCT027 BKN110 21/17 A2969 RMK SC3AC4 SLP056 DENSITY ALT 1500FT
1:00 am
V
70 °F 15 mi 25,000 ft 190°   190° 12 24 kt METAR CYOW 210500Z 19012G24KT 15SM FEW040 SCT140 BKN250 21/16 A2969 RMK SC2AC1CI2 SLP055 DENSITY ALT 1500FT
12:00 am
V
70 °F 15 mi 25,000 ft 170°   170° 9 15 kt METAR CYOW 210400Z 17009G15KT 15SM FEW055 SCT150 BKN250 21/16 A2968 RMK SC1AC2CI4 SLP053 DENSITY ALT 1500FT

May 20, 2022

Time Code Weather Temp. Visibility Clouds Wind METAR/SPECI
11:00 pm
V
72 °F 15 mi 25,000 ft 200°   200° 8 kt METAR CYOW 210300Z 20008KT 15SM FEW090 BKN250 22/16 A2972 RMK AC1CI6 AC TR SLP067 DENSITY ALT 1500FT
10:00 pm
V
72 °F 15 mi - 180°   180° 7 kt METAR CYOW 210200Z 18007KT 15SM FEW120 FEW210 22/16 A2972 RMK AC1CI2 AC TR SLP065 DENSITY ALT 1600FT
9:00 pm
V
72 °F 15 mi 25,000 ft 140°   140° 8 kt METAR CYOW 210100Z 14008KT 15SM SCT210 BKN250 22/16 A2965 RMK CI3CI2 SLP042 DENSITY ALT 1600FT
8:00 pm
V
75 °F 15 mi 26,000 ft 190°   190° 7 kt METAR CYOW 210000Z 19007KT 15SM FEW150 FEW210 OVC260 24/16 A2966 RMK AC1CI2CS6 AC TR SLP046 DENSITY ALT 1900FT
7:00 pm
V
79 °F 15 mi 26,000 ft 200°   200° 14 25 kt METAR CYOW 202300Z 20014G25KT 15SM FEW040 FEW150 BKN260 26/16 A2967 RMK CU1AC1CI6 CU TR SLP051 DENSITY ALT 2000FT
6:00 pm
V
79 °F 15 mi 26,000 ft 200°   200° 18 23 kt METAR CYOW 202200Z 20018G23KT 15SM FEW050 FEW160 BKN260 26/16 A2964 RMK CU1AC1CI5 CU TR AC TR SLP039 DENSITY ALT 2100FT
5:00 pm
V
81 °F 15 mi - 190°   190° 14 21 kt METAR CYOW 202100Z 19014G21KT 140V210 15SM FEW050 FEW130 SCT260 27/16 A2965 RMK CU1AC1CI3 CU TR AC TR SLP043 DENSITY ALT 2200FT
4:00 pm
V
81 °F 15 mi - 170°   170° 15 25 kt METAR CYOW 202000Z 17015G25KT 15SM FEW045 FEW130 SCT260 27/16 A2968 RMK CU1AC1CI3 CU TR AC TR SLP055 DENSITY ALT 2200FT
3:00 pm
V
81 °F 15 mi - 170°   170° 9 20 kt METAR CYOW 201900Z 17009G20KT 15SM FEW045 FEW200 FEW260 27/17 A2969 RMK CU1CI1CI1 CI TR CI TR SLP056 DENSITY ALT 2100FT
2:00 pm
V
77 °F 15 mi - 160°   160° 7 17 kt METAR CYOW 201800Z 16007G17KT 110V200 15SM FEW040 FEW200 SCT260 25/16 A2971 RMK CU1CI1CI1 SLP064 DENSITY ALT 1900FT
1:00 pm
V
73 °F 15 mi - 120°   120° 10 17 kt METAR CYOW 201700Z 12010G17KT 110V170 15SM FEW200 SCT260 23/15 A2973 RMK CI2CI2 SLP069 DENSITY ALT 1600FT
12:00 pm
V
70 °F 15 mi 26,000 ft 120°   120° 13 19 kt METAR CYOW 201600Z 12013G19KT 15SM SCT200 BKN260 21/14 A2975 RMK CI4CI1 SLP077 DENSITY ALT 1400FT
11:00 am
V
64 °F 15 mi 26,000 ft 120°   120° 10 kt METAR CYOW 201500Z 12010KT 15SM FEW180 SCT210 BKN260 18/13 A2977 RMK AC2CI1CI3 SLP086 DENSITY ALT 1000FT
10:00 am
V
59 °F 15 mi 26,000 ft 100°   100° 10 16 kt METAR CYOW 201400Z 10010G16KT 15SM FEW130 SCT180 BKN260 15/11 A2980 RMK AC1AC2CI3 SLP094 DENSITY ALT 700FT
9:00 am
V
52 °F 10 mi 13,000 ft 080°   080° 8 kt METAR CYOW 201300Z 08008KT 10SM FEW003 SCT065 BKN130 BKN160 11/11 A2981 RMK SF1SC4AC1AC1 SF TR SLP098
8:00 am
V
50 °F 5 mi 6,600 ft 120°   120° 7 kt METAR CYOW 201200Z 12007KT 5SM BR SCT002 BKN066 10/10 A2983 RMK SF3AC4 SLP105
7:32 am
M
50 °F 4 mi 5,000 ft 080°   080° 4 kt METAR CYOW 201132Z 08004KT 4SM BR SCT002 BKN050 BKN075 10/09 A2983 RMK SF3SC3AC1 SLP105
7:16 am
L
50 °F 3 mi 200 ft 120°   120° 5 kt METAR CYOW 201116Z 12005KT 3SM BR BKN002 OVC050 10/09 A2983 RMK FG1ST5SC2 SLP104
7:00 am
L
48 °F 1½ mi 200 ft 120°   120° 4 kt METAR CYOW 201100Z 12004KT 1 1/2SM BR BKN002 BKN090 09/09 A2982 RMK FG4ST2AC1 SLP102
6:51 am
L
48 °F 1 mi 200 ft 120°   120° 6 kt METAR CYOW 201051Z 12006KT 1SM R07/4000VP6000FT/U R32/P6000FT/N BR BKN002 OVC090 09/09 A2981 RMK FG5ST2AC1 SLP100
6:43 am
L
48 °F ½ mi 200 ft 110°   110° 5 kt METAR CYOW 201043Z 11005KT 1/2SM R07/2800V5000FT/U R32/2600VP6000FT/U FG VV002 09/09 A2982 RMK FG8 SLP101
6:00 am
L
46 °F ⅛ mi 100 ft 110°   110° 3 kt METAR CYOW 201000Z 11003KT 1/8SM R07/1400V1600FT/N R32/1200V1400FT/N FG VV001 08/08 A2982 RMK FG8 SLP102
5:00 am
L
46 °F ⅛ mi 100 ft 150°   150° 5 kt METAR CYOW 200900Z 15005KT 1/8SM R07/2000V2600FT/N R32/1800V2000FT/N FG VV001 08/08 A2980 RMK FG8 SLP094
4:00 am
L
46 °F ⅛ mi 100 ft 140°   140° 3 kt METAR CYOW 200800Z 14003KT 120V190 1/8SM R07/1800V2000FT/N R32/1600FT/N FG VV001 08/08 A2979 RMK FG8 SLP093
3:00 am
L
46 °F ⅜ mi 100 ft 170°   170° 4 kt METAR CYOW 200700Z 17004KT 3/8SM R07/2400V2600FT/N R32/2200V2600FT/N FG VV001 08/08 A2979 RMK FG8 SLP092
2:00 am
L
46 °F ⅜ mi 200 ft 160°   160° 6 kt METAR CYOW 200600Z 16006KT 3/8SM R07/2000V2600FT/N R32/1800V2200FT/N FG VV002 08/08 A2977 RMK FG8 SLP086
1:00 am
V
45 °F 15 mi - 140°   140° 5 kt METAR CYOW 200500Z 14005KT 15SM FEW002 07/07 A2978 RMK SF1 SF TR SLP089
Older data

Download our app

Easy access to all aviation weather on your mobile phone and tablet.
With many features not available on the website, like offline support and a personal airport list.

We and third parties follow your internet behavior on our website with cookies. If you continue, we assume you agree with our cookie policy. Learn more